Time;durP1;ratioP1;P1;durP2;ratioP2;P2;SDS_P1;SDS_P2;PMS_P1;PMS_P2;Temp;Humidity;BMP_temperature;BMP_pressure;BME280_temperature;BME280_humidity;BME280_pressure;Samples;Min_cycle;Max_cycle;Signal;HPM_P1;HPM_P2
2022/09/17 00:01:45;;;;;;;3.30;1.27;;;10.30;99.90;;;9.60;100.00;101737.09;5148871;23;20001;-75
2022/09/17 00:03:51;;;;;;;4.85;1.08;;;10.30;99.90;;;9.46;100.00;101714.53;5149180;23;20027;-74
2022/09/17 00:06:08;;;;;;;5.47;1.10;;;10.20;99.90;;;9.56;100.00;101727.81;5148815;23;20007;-74
2022/09/17 00:08:13;;;;;;;2.97;0.90;;;10.20;99.90;;;9.52;100.00;101729.00;5122308;23;20009;-74
2022/09/17 00:10:14;;;;;;;5.57;1.63;;;10.30;99.90;;;9.56;100.00;101735.72;5122387;23;20012;-74
2022/09/17 00:12:15;;;;;;;4.80;1.15;;;10.20;99.90;;;9.44;100.00;101705.91;5148864;23;20057;-74
2022/09/17 00:14:17;;;;;;;2.85;1.00;;;10.20;99.90;;;9.49;100.00;101729.25;5147367;23;20001;-74
2022/09/17 00:16:39;;;;;;;4.03;1.05;;;10.20;99.90;;;9.58;100.00;101734.63;5122171;23;20058;-75
2022/09/17 00:18:40;;;;;;;3.20;1.00;;;10.20;99.90;;;9.54;100.00;101745.50;5148839;23;20042;-75
2022/09/17 00:20:44;;;;;;;3.13;1.05;;;10.20;99.90;;;9.42;100.00;101731.53;5147277;23;20452;-74
2022/09/17 00:22:45;;;;;;;3.80;1.00;;;10.20;99.90;;;9.46;100.00;101738.25;5147339;23;20425;-74
2022/09/17 00:24:46;;;;;;;3.40;1.27;;;10.20;99.90;;;9.33;100.00;101716.50;5146956;23;20007;-74
2022/09/17 00:26:48;;;;;;;3.63;1.13;;;10.20;99.90;;;9.48;100.00;101741.59;5147200;23;20009;-75
2022/09/17 00:28:53;;;;;;;2.58;1.35;;;10.10;99.90;;;9.49;100.00;101742.44;5147495;23;20011;-74
2022/09/17 00:30:54;;;;;;;4.53;1.38;;;10.10;99.90;;;9.42;100.00;101742.94;5123230;23;20028;-74
2022/09/17 00:32:56;;;;;;;4.57;1.58;;;10.20;99.90;;;9.33;100.00;101719.97;5121979;23;20009;-74
2022/09/17 00:34:57;;;;;;;4.90;1.48;;;10.10;99.90;;;9.28;100.00;101714.25;5148630;23;20009;-74
2022/09/17 00:36:58;;;;;;;3.80;1.75;;;10.10;99.90;;;9.34;100.00;101726.06;5147144;23;20523;-74
2022/09/17 00:38:59;;;;;;;4.53;1.38;;;10.10;99.90;;;9.25;100.00;101719.75;5146694;23;20020;-74
2022/09/17 00:41:02;;;;;;;2.58;1.55;;;10.10;99.90;;;9.27;100.00;101723.09;5146837;23;20361;-74
2022/09/17 00:43:09;;;;;;;2.78;1.27;;;10.10;99.90;;;9.31;100.00;101729.78;5146719;23;20039;-74
2022/09/17 00:45:11;;;;;;;4.50;1.05;;;10.00;99.90;;;9.20;100.00;101719.28;5147375;23;20000;-75
2022/09/17 00:47:23;;;;;;;4.57;1.10;;;10.00;99.90;;;9.29;100.00;101736.97;5147065;23;20001;-74
2022/09/17 00:49:29;;;;;;;3.92;1.23;;;10.00;99.90;;;9.26;100.00;101739.84;5147334;23;20004;-75
2022/09/17 00:51:40;;;;;;;4.20;1.23;;;10.00;99.90;;;9.12;100.00;101721.69;5147005;23;20035;-75
2022/09/17 00:53:42;;;;;;;6.55;1.38;;;9.90;99.90;;;9.12;100.00;101728.75;5147295;23;20009;-74
2022/09/17 00:56:02;;;;;;;5.68;2.63;;;9.90;99.90;;;9.08;100.00;101733.41;5146337;23;20013;-74
2022/09/17 00:58:08;;;;;;;3.03;1.20;;;9.90;99.90;;;9.03;100.00;101721.59;5147015;23;20012;-74
2022/09/17 01:00:11;;;;;;;4.13;1.13;;;9.80;99.90;;;9.06;100.00;101735.34;5147326;23;20000;-74
2022/09/17 01:02:13;;;;;;;3.72;1.30;;;9.80;99.90;;;9.03;100.00;101734.75;5147138;23;20005;-75
2022/09/17 01:04:19;;;;;;;1.65;1.02;;;9.80;99.90;;;9.12;100.00;101750.66;5122156;23;20494;-74
2022/09/17 01:06:37;;;;;;;6.13;1.60;;;9.80;99.90;;;9.18;100.00;101751.94;5146844;23;20449;-74
2022/09/17 01:09:04;;;;;;;4.72;1.80;;;9.80;99.90;;;9.19;100.00;101751.84;5171659;23;20012;-75
2022/09/17 01:11:51;;;;;;;1.92;0.90;;;9.80;99.90;;;9.18;100.00;101754.56;5123684;23;20445;-74
2022/09/17 01:14:37;;;;;;;2.25;1.10;;;9.80;99.90;;;9.12;100.00;101755.06;5171983;23;20057;-74
2022/09/17 01:17:14;;;;;;;3.70;1.55;;;9.80;99.90;;;9.12;100.00;101758.53;5113047;23;20009;-74
2022/09/17 01:20:04;;;;;;;4.18;1.30;;;9.80;99.90;;;9.12;100.00;101762.97;5148604;23;20005;-74
2022/09/17 01:22:29;;;;;;;6.45;1.58;;;9.80;99.90;;;9.03;100.00;101750.53;5148236;23;20087;-75
2022/09/17 01:25:05;;;;;;;3.70;1.20;;;9.80;99.90;;;8.99;100.00;101755.19;5147654;23;20012;-75
2022/09/17 01:27:18;;;;;;;2.53;1.45;;;9.80;99.90;;;9.09;100.00;101769.31;5148276;23;20001;-75
2022/09/17 01:29:49;;;;;;;5.80;1.42;;;9.80;99.90;;;9.06;100.00;101764.28;5148455;23;20451;-74
2022/09/17 01:32:13;;;;;;;3.42;1.40;;;9.70;99.90;;;8.89;100.00;101749.84;5148152;23;20433;-75
2022/09/17 01:34:31;;;;;;;4.93;1.70;;;9.70;99.90;;;8.87;100.00;101741.22;5147996;23;20016;-74
2022/09/17 01:36:39;;;;;;;3.05;1.20;;;9.70;99.90;;;8.83;100.00;101745.06;5146869;23;20012;-74
2022/09/17 01:38:56;;;;;;;5.07;1.67;;;9.70;99.90;;;8.80;100.00;101741.81;5122036;23;20519;-74
2022/09/17 01:41:21;;;;;;;7.95;1.52;;;9.70;99.90;;;8.86;100.00;101765.88;5146479;23;20008;-74
2022/09/17 01:43:48;;;;;;;3.38;1.13;;;9.60;99.90;;;8.90;100.00;101772.53;5123748;23;20063;-75
2022/09/17 01:46:12;;;;;;;3.50;1.23;;;9.60;99.90;;;8.88;100.00;101774.47;5146725;23;20011;-74
2022/09/17 01:48:18;;;;;;;4.68;1.52;;;9.60;99.90;;;8.72;100.00;101750.31;5146311;23;20004;-74
2022/09/17 01:50:29;;;;;;;3.33;1.90;;;9.50;99.90;;;8.70;100.00;101749.59;5146609;23;20007;-74
2022/09/17 01:52:35;;;;;;;5.13;1.60;;;9.50;99.90;;;8.83;100.00;101781.91;5147336;23;20001;-75
2022/09/17 01:54:53;;;;;;;3.70;1.42;;;9.50;99.90;;;8.85;100.00;101784.38;5147810;23;20071;-74
2022/09/17 01:57:35;;;;;;;5.43;1.90;;;9.50;99.90;;;8.63;100.00;101766.78;5146796;23;20015;-74
2022/09/17 02:00:21;;;;;;;3.42;1.40;;;9.40;99.90;;;8.53;100.00;101751.84;5125441;23;20008;-74
2022/09/17 02:02:53;;;;;;;6.05;2.00;;;9.40;99.90;;;8.67;100.00;101776.13;5141480;23;20416;-75
2022/09/17 02:05:20;;;;;;;2.95;1.30;;;9.40;99.90;;;8.62;100.00;101778.28;5135929;23;20031;-74
2022/09/17 02:07:24;;;;;;;5.32;1.45;;;9.30;99.90;;;8.42;100.00;101757.13;5145380;23;20016;-74
2022/09/17 02:09:51;;;;;;;4.47;1.42;;;9.30;99.90;;;8.39;100.00;101754.72;5146167;23;20012;-75
2022/09/17 02:11:57;;;;;;;2.42;1.10;;;9.20;99.90;;;8.41;100.00;101779.94;5122541;23;20012;-74
2022/09/17 02:14:07;;;;;;;3.90;1.50;;;9.20;99.90;;;8.31;100.00;101761.38;5146725;23;20062;-74
2022/09/17 02:16:33;;;;;;;4.57;1.52;;;9.10;99.90;;;8.26;100.00;101762.66;5146466;23;20008;-75
2022/09/17 02:18:44;;;;;;;2.28;1.23;;;9.10;99.90;;;8.33;100.00;101777.88;5146811;23;20024;-74
2022/09/17 02:20:53;;;;;;;3.53;1.10;;;9.00;99.90;;;8.19;100.00;101764.91;5122585;23;20029;-74
2022/09/17 02:23:05;;;;;;;2.75;1.60;;;9.00;99.90;;;8.27;100.00;101780.13;5122315;23;20076;-75
2022/09/17 02:25:41;;;;;;;5.82;1.38;;;9.00;99.90;;;8.27;100.00;101783.59;5146207;23;20004;-75
2022/09/17 02:27:56;;;;;;;3.53;1.30;;;9.00;99.90;;;8.21;100.00;101773.50;5146280;23;20063;-74
2022/09/17 02:29:57;;;;;;;3.90;1.30;;;8.90;99.90;;;8.18;100.00;101775.56;5145983;23;20019;-75
2022/09/17 02:32:07;;;;;;;3.42;1.40;;;8.90;99.90;;;8.00;100.00;101762.00;5148207;23;20027;-74
2022/09/17 02:34:10;;;;;;;3.83;1.20;;;8.90;99.90;;;8.03;100.00;101779.31;5147706;23;20052;-74
2022/09/17 02:36:11;;;;;;;4.43;1.30;;;8.80;99.90;;;8.05;100.00;101793.19;5149896;23;20087;-74
2022/09/17 02:38:12;;;;;;;4.43;1.25;;;8.80;99.90;;;7.93;100.00;101762.56;5149373;23;20004;-74
2022/09/17 02:40:16;;;;;;;1.75;1.27;;;8.70;99.90;;;7.93;100.00;101766.03;5147713;23;20001;-74
2022/09/17 02:42:47;;;;;;;;;;;8.80;99.90;;;7.84;100.00;101756.19;5148761;23;20024;-74
2022/09/17 02:45:11;;;;;;;2.72;1.30;;;8.70;99.90;;;7.95;100.00;101777.25;5128599;23;19904;-74
2022/09/17 02:47:47;;;;;;;6.03;2.08;;;8.70;99.90;;;7.93;100.00;101773.06;5127166;23;20055;-74
2022/09/17 02:50:29;;;;;;;2.15;1.40;;;8.70;99.90;;;8.00;100.00;101790.06;5149448;23;20001;-74
2022/09/17 02:53:07;;;;;;;3.20;1.60;;;8.70;99.90;;;7.93;100.00;101773.91;5148281;23;20071;-74
2022/09/17 02:55:51;;;;;;;4.47;1.60;;;8.70;99.90;;;7.96;100.00;101784.19;5147733;23;20005;-74
2022/09/17 02:58:11;;;;;;;2.25;1.30;;;8.70;99.90;;;7.97;100.00;101787.66;5148155;23;20472;-74
2022/09/17 03:00:19;;;;;;;2.83;1.30;;;8.70;99.90;;;7.80;100.00;101762.63;5149353;23;20092;-74
2022/09/17 03:02:31;;;;;;;3.83;1.48;;;8.70;99.90;;;7.90;100.00;101789.06;5147945;23;20342;-74
2022/09/17 03:04:34;;;;;;;5.72;1.52;;;8.60;99.90;;;7.77;100.00;101762.84;5148233;23;20456;-75
2022/09/17 03:06:35;;;;;;;3.10;1.65;;;8.60;99.90;;;7.78;100.00;101764.53;5147870;23;20011;-74
2022/09/17 03:08:39;;;;;;;4.93;2.13;;;8.60;99.90;;;7.74;100.00;101757.81;5149300;23;20361;-74
2022/09/17 03:10:40;;;;;;;3.25;1.33;;;8.60;99.90;;;7.77;100.00;101762.84;5147476;23;20021;-75
2022/09/17 03:12:42;;;;;;;3.25;1.60;;;8.60;99.90;;;7.71;100.00;101751.00;5147780;23;20009;-74
2022/09/17 03:14:43;;;;;;;3.42;1.40;;;8.60;99.90;;;7.72;100.00;101757.94;5148172;23;20039;-74
2022/09/17 03:16:43;;;;;;;4.32;1.70;;;8.60;99.90;;;7.79;100.00;101760.97;5149450;23;20005;-75
2022/09/17 03:18:44;;;;;;;4.13;1.40;;;8.60;99.90;;;7.90;100.00;101779.38;5149119;23;20004;-74
2022/09/17 03:20:45;;;;;;;2.75;1.30;;;8.60;99.90;;;7.75;100.00;101755.09;5149253;23;20000;-74
2022/09/17 03:22:46;;;;;;;5.60;1.40;;;8.60;99.90;;;7.92;100.00;101780.09;5149433;23;20055;-74
2022/09/17 03:24:47;;;;;;;2.45;1.52;;;8.60;99.90;;;7.76;100.00;101759.38;5148953;23;20004;-74
2022/09/17 03:26:48;;;;;;;2.33;1.67;;;8.60;99.90;;;7.93;100.00;101787.03;5149145;23;20001;-74
2022/09/17 03:28:49;;;;;;;2.05;1.05;;;8.60;99.90;;;7.72;100.00;101760.56;5149237;23;20039;-74
2022/09/17 03:30:50;;;;;;;3.80;1.65;;;8.60;99.90;;;7.80;100.00;101778.38;5149465;23;20031;-75
2022/09/17 03:32:51;;;;;;;3.88;1.70;;;8.60;99.90;;;7.76;100.00;101771.69;5147701;23;20008;-75
2022/09/17 03:34:53;;;;;;;3.78;1.42;;;8.60;99.90;;;7.82;100.00;101774.69;5149138;23;20054;-74
2022/09/17 03:36:54;;;;;;;3.60;1.60;;;8.60;99.90;;;7.88;100.00;101785.72;5147689;23;20424;-74
2022/09/17 03:38:56;;;;;;;3.85;1.20;;;8.60;99.90;;;7.73;100.00;101762.25;5147691;23;20066;-74
2022/09/17 03:41:02;;;;;;;2.95;1.38;;;8.60;99.90;;;7.72;100.00;101757.94;5148909;23;20012;-74
2022/09/17 03:43:04;;;;;;;3.08;1.98;;;8.60;99.90;;;7.74;100.00;101766.53;5147580;23;20346;-74
2022/09/17 03:45:06;;;;;;;6.00;1.58;;;8.60;99.90;;;7.71;100.00;101758.88;5149460;23;20492;-74
2022/09/17 03:47:07;;;;;;;5.80;2.35;;;8.50;99.90;;;7.87;100.00;101789.28;5147197;23;20035;-75
2022/09/17 03:49:08;;;;;;;6.55;1.50;;;8.50;99.90;;;7.84;100.00;101787.72;5149115;23;20078;-75
2022/09/17 03:51:09;;;;;;;3.15;1.40;;;8.50;99.90;;;7.82;100.00;101792.25;5122558;23;20365;-74
2022/09/17 03:53:10;;;;;;;4.45;2.03;;;8.50;99.90;;;7.65;100.00;101766.38;5122263;23;20005;-75
2022/09/17 03:55:11;;;;;;;1.98;1.05;;;8.50;99.90;;;7.60;100.00;101764.09;5147117;23;20368;-74
2022/09/17 03:57:12;;;;;;;2.65;1.88;;;8.50;99.90;;;7.65;100.00;101775.09;5149224;23;20317;-75
2022/09/17 03:59:13;;;;;;;2.50;1.25;;;8.50;99.90;;;7.72;100.00;101797.34;5147061;23;20016;-75
2022/09/17 04:01:14;;;;;;;3.30;1.40;;;8.50;99.90;;;7.76;100.00;101795.34;5147533;23;20007;-75
2022/09/17 04:03:15;;;;;;;4.95;1.52;;;8.50;99.90;;;7.66;100.00;101774.16;5149147;23;20341;-75
2022/09/17 04:05:16;;;;;;;7.30;1.90;;;8.50;99.90;;;7.72;100.00;101786.00;5148899;23;20001;-74
2022/09/17 04:07:17;;;;;;;6.35;1.70;;;8.50;99.90;;;7.79;100.00;101798.56;5149097;23;20011;-75
2022/09/17 04:09:18;;;;;;;2.65;1.55;;;8.50;99.90;;;7.60;100.00;101771.13;5148529;23;20008;-74
2022/09/17 04:11:19;;;;;;;3.75;1.30;;;8.50;99.90;;;7.54;100.00;101772.41;5147694;23;20456;-74
2022/09/17 04:13:20;;;;;;;3.83;1.45;;;8.50;99.90;;;7.70;100.00;101804.50;5148985;23;20043;-74
2022/09/17 04:15:21;;;;;;;2.47;1.52;;;8.40;99.90;;;7.59;100.00;101788.66;5122735;23;20012;-74
2022/09/17 04:17:22;;;;;;;2.58;1.30;;;8.40;99.90;;;7.61;100.00;101794.66;5147311;23;20034;-75
2022/09/17 04:19:23;;;;;;;5.35;1.80;;;8.40;99.90;;;7.52;100.00;101779.56;5172723;23;20050;-74
2022/09/17 04:21:23;;;;;;;3.58;1.40;;;8.40;99.90;;;7.70;100.00;101798.41;5149070;23;20001;-74
2022/09/17 04:23:24;;;;;;;4.13;2.15;;;8.40;99.90;;;7.59;100.00;101783.41;5122234;23;20024;-74
2022/09/17 04:25:25;;;;;;;5.35;1.42;;;8.40;99.90;;;7.62;100.00;101788.44;5148298;23;20398;-74
2022/09/17 04:27:26;;;;;;;3.88;1.77;;;8.40;99.90;;;7.73;100.00;101808.69;5148786;23;20452;-74
2022/09/17 04:29:27;;;;;;;2.38;1.50;;;8.40;99.90;;;7.56;100.00;101778.38;5148964;23;20005;-74
2022/09/17 04:31:28;;;;;;;5.82;1.70;;;8.40;99.90;;;7.61;100.00;101788.56;5122452;23;20009;-74
2022/09/17 04:33:29;;;;;;;4.38;1.83;;;8.40;99.90;;;7.57;100.00;101787.94;5146961;23;20020;-74
2022/09/17 04:35:30;;;;;;;2.50;1.48;;;8.40;99.90;;;7.54;100.00;101788.16;5148609;23;20005;-75
2022/09/17 04:37:31;;;;;;;4.40;1.83;;;8.40;99.90;;;7.66;100.00;101794.31;5147235;23;20195;-74
2022/09/17 04:39:32;;;;;;;5.13;1.92;;;8.40;99.90;;;7.67;100.00;101803.88;5146722;23;20059;-74
2022/09/17 04:41:33;;;;;;;1.88;1.40;;;8.40;99.90;;;7.55;100.00;101784.59;5122065;23;20012;-74
2022/09/17 04:43:34;;;;;;;2.47;1.73;;;8.40;99.90;;;7.58;100.00;101794.88;5148519;23;20004;-74
2022/09/17 04:45:35;;;;;;;3.70;1.92;;;8.40;99.90;;;7.34;100.00;101766.94;5122309;23;20035;-74
2022/09/17 04:47:39;;;;;;;2.35;1.40;;;8.40;99.90;;;7.48;100.00;101804.38;5147200;23;20000;-74
2022/09/17 04:49:40;;;;;;;;;;;8.30;99.90;;;7.42;100.00;101799.56;5149240;23;20437;-75
2022/09/17 04:51:41;;;;;;;4.10;1.50;;;8.30;99.90;;;7.43;100.00;101795.16;5147132;23;19907;-74
2022/09/17 04:53:42;;;;;;;5.38;1.88;;;8.30;99.90;;;7.49;100.00;101803.44;5148510;23;20013;-74
2022/09/17 04:55:43;;;;;;;2.65;1.35;;;8.30;99.90;;;7.52;100.00;101812.88;5121674;23;20064;-74
2022/09/17 04:57:52;;;;;;;2.47;1.50;;;8.30;99.90;;;7.38;100.00;101787.59;5146682;23;20011;-74
2022/09/17 04:59:53;;;;;;;4.57;1.45;;;8.20;99.90;;;7.39;100.00;101799.78;5145928;23;20079;-74
2022/09/17 05:01:54;;;;;;;2.25;1.38;;;8.20;99.90;;;7.49;100.00;101824.44;5148485;23;20013;-74
2022/09/17 05:03:54;;;;;;;2.50;1.70;;;8.30;99.90;;;7.52;100.00;101834.72;5121775;23;20492;-74
2022/09/17 05:05:55;;;;;;;4.50;2.08;;;8.20;99.90;;;7.36;100.00;101814.91;5148790;23;20012;-74
2022/09/17 05:07:56;;;;;;;5.68;1.90;;;8.20;99.90;;;7.29;100.00;101803.19;5147099;23;20000;-75
2022/09/17 05:09:57;;;;;;;2.90;1.65;;;8.20;99.90;;;7.50;100.00;101835.75;5148152;23;20340;-74
2022/09/17 05:11:58;;;;;;;4.45;2.00;;;8.20;99.90;;;7.50;100.00;101838.38;5121674;23;20009;-74
2022/09/17 05:13:59;;;;;;;3.97;2.05;;;8.20;99.90;;;7.46;100.00;101842.19;5148284;23;20011;-74
2022/09/17 05:16:00;;;;;;;5.13;2.63;;;8.20;99.90;;;7.33;100.00;101821.22;5148266;23;20341;-74
2022/09/17 05:18:01;;;;;;;2.88;1.65;;;8.20;99.90;;;7.46;100.00;101853.53;5122320;23;20013;-74
2022/09/17 05:20:03;;;;;;;4.38;1.90;;;8.20;99.90;;;7.33;100.00;101831.72;5148249;23;20012;-74
2022/09/17 05:22:03;;;;;;;3.38;1.95;;;8.20;99.90;;;7.31;100.00;101827.50;5148340;23;20004;-74
2022/09/17 05:24:05;;;;;;;3.13;1.67;;;8.10;99.90;;;7.39;100.00;101844.41;5147840;23;20082;-74
2022/09/17 05:26:05;;;;;;;3.72;1.75;;;8.10;99.90;;;7.32;100.00;101839.69;5121477;23;20036;-75
2022/09/17 05:28:06;;;;;;;2.65;2.15;;;8.10;99.90;;;7.29;100.00;101835.47;5148350;23;20004;-74
2022/09/17 05:30:09;;;;;;;4.45;1.83;;;8.10;99.90;;;7.35;100.00;101842.91;5148390;23;20005;-74
2022/09/17 05:32:10;;;;;;;3.30;1.90;;;8.10;99.90;;;7.23;100.00;101826.25;5148169;23;20034;-74
2022/09/17 05:34:11;;;;;;;6.13;3.10;;;8.10;99.90;;;7.34;100.00;101843.91;5148599;23;20020;-74
2022/09/17 05:36:12;;;;;;;5.57;2.17;;;8.10;99.90;;;7.29;100.00;101834.66;5146980;23;20012;-74
2022/09/17 05:38:13;;;;;;;4.80;1.73;;;8.10;99.90;;;7.19;100.00;101823.97;5147801;23;20004;-74
2022/09/17 05:40:14;;;;;;;2.90;1.23;;;8.00;99.90;;;7.15;100.00;101828.59;5147575;23;20345;-74
2022/09/17 05:42:15;;;;;;;3.38;1.60;;;8.00;99.90;;;7.22;100.00;101844.75;5146705;23;20476;-74
2022/09/17 05:44:16;;;;;;;3.83;1.85;;;8.00;99.90;;;7.05;100.00;101821.44;5146731;23;20004;-74
2022/09/17 05:46:16;;;;;;;4.60;1.90;;;8.00;99.90;;;7.24;100.00;101851.56;5121782;23;20001;-74
2022/09/17 05:48:17;;;;;;;5.00;2.10;;;7.90;99.90;;;7.07;100.00;101815.19;5171676;23;20008;-74
2022/09/17 05:50:18;;;;;;;2.78;1.55;;;7.90;99.90;;;7.08;100.00;101836.97;5147188;23;20432;-74
2022/09/17 05:52:19;;;;;;;4.43;2.08;;;7.90;99.90;;;7.19;100.00;101850.22;5171770;23;20004;-74
2022/09/17 05:54:20;;;;;;;3.33;1.52;;;7.90;99.90;;;7.12;100.00;101846.31;5146251;23;20372;-74
2022/09/17 05:56:22;;;;;;;3.13;1.60;;;8.00;99.90;;;7.06;100.00;101837.09;5148009;23;20444;-74
2022/09/17 05:58:24;;;;;;;3.13;1.70;;;8.00;99.90;;;7.10;100.00;101840.38;5121622;23;20342;-75
2022/09/17 06:00:25;;;;;;;4.22;1.98;;;8.00;99.90;;;7.25;100.00;101868.16;5121778;23;20088;-74
2022/09/17 06:02:26;;;;;;;5.38;2.03;;;7.90;99.90;;;7.16;100.00;101845.19;5146314;23;20091;-74
2022/09/17 06:04:27;;;;;;;2.67;1.73;;;7.90;99.90;;;7.16;100.00;101848.66;5121700;23;20043;-74
2022/09/17 06:06:29;;;;;;;2.20;1.73;;;8.00;99.90;;;7.11;100.00;101835.00;5146423;23;20004;-74
2022/09/17 06:08:34;;;;;;;3.33;1.50;;;8.00;99.90;;;7.12;100.00;101835.84;5146606;23;20017;-74
2022/09/17 06:10:38;;;;;;;;;;;8.00;99.90;;;7.27;100.00;101863.63;5146432;23;20012;-74
2022/09/17 06:12:39;;;;;;;5.45;1.50;;;8.00;99.90;;;7.14;100.00;101842.66;5121953;23;19990;-74
2022/09/17 06:14:40;;;;;;;2.35;1.75;;;8.00;99.90;;;7.23;100.00;101865.63;5146514;23;20015;-74
2022/09/17 06:16:41;;;;;;;3.92;1.73;;;8.00;99.90;;;7.24;100.00;101864.69;5147974;23;20443;-74
2022/09/17 06:18:42;;;;;;;6.53;1.95;;;8.00;99.90;;;7.34;100.00;101878.00;5146369;23;20015;-74
2022/09/17 06:20:51;;;;;;;4.50;2.35;;;8.10;99.90;;;7.41;100.00;101887.13;5146399;23;20000;-75
2022/09/17 06:22:58;;;;;;;4.97;2.42;;;8.10;99.90;;;7.28;100.00;101859.22;5123024;23;20015;-75
2022/09/17 06:25:01;;;;;;;2.83;1.77;;;8.10;99.90;;;7.29;100.00;101859.09;5120838;23;20092;-74
2022/09/17 06:27:02;;;;;;;6.00;1.98;;;8.10;99.90;;;7.29;100.00;101856.47;5147920;23;20009;-74
2022/09/17 06:29:03;;;;;;;5.85;2.25;;;8.20;99.90;;;7.46;100.00;101884.19;5146398;23;20047;-74
2022/09/17 06:31:06;;;;;;;6.53;1.98;;;8.20;99.90;;;7.47;100.00;101877.97;5147945;23;20005;-74
2022/09/17 06:33:07;;;;;;;2.88;2.25;;;8.20;99.90;;;7.45;100.00;101872.84;5121323;23;20453;-74
2022/09/17 06:35:10;;;;;;;4.28;2.30;;;8.30;99.90;;;7.58;100.00;101894.66;5121705;23;20350;-74
2022/09/17 06:37:10;;;;;;;3.90;1.85;;;8.30;99.90;;;7.49;100.00;101869.06;5146359;23;20020;-74
2022/09/17 06:39:12;;;;;;;3.35;1.98;;;8.30;99.90;;;7.53;100.00;101861.78;5147492;23;20527;-74
2022/09/17 06:41:13;;;;;;;4.78;1.80;;;8.40;99.90;;;7.55;100.00;101866.00;5121826;23;20016;-74
2022/09/17 06:43:14;;;;;;;3.88;2.20;;;8.40;99.90;;;7.69;100.00;101889.47;5145993;23;20008;-74
2022/09/17 06:45:15;;;;;;;5.15;2.50;;;8.50;99.90;;;7.62;100.00;101869.00;5146186;23;20444;-74
2022/09/17 06:47:16;;;;;;;3.10;1.88;;;8.50;99.90;;;7.77;100.00;101889.75;5146191;23;20008;-74
2022/09/17 06:49:18;;;;;;;4.60;1.35;;;8.60;99.90;;;7.86;100.00;101898.75;5121552;23;20012;-74
2022/09/17 06:51:19;;;;;;;4.05;2.00;;;8.60;99.90;;;7.85;100.00;101881.34;5121873;23;20005;-74
2022/09/17 06:53:24;;;;;;;2.63;1.67;;;8.70;99.90;;;8.04;100.00;101902.69;5147774;23;20005;-74
2022/09/17 06:55:24;;;;;;;2.55;1.67;;;8.80;99.90;;;8.14;100.00;101900.25;5147449;23;20390;-74
2022/09/17 06:57:25;;;;;;;5.15;1.60;;;8.80;99.90;;;8.08;100.00;101884.91;5146037;23;20011;-74
2022/09/17 06:59:27;;;;;;;2.90;1.80;;;8.90;99.90;;;8.24;100.00;101896.00;5146222;23;20009;-74
2022/09/17 07:01:28;;;;;;;3.40;1.88;;;9.00;99.90;;;8.33;100.00;101901.44;5121492;23;20005;-74
2022/09/17 07:03:30;;;;;;;1.85;1.17;;;9.10;99.90;;;8.33;100.00;101888.28;5146236;23;20137;-75
2022/09/17 07:05:31;;;;;;;2.55;1.80;;;9.20;99.90;;;8.50;100.00;101892.31;5147998;23;20030;-74
2022/09/17 07:07:34;;;;;;;2.75;1.63;;;9.30;99.90;;;8.48;100.00;101886.34;5148014;23;20066;-74
2022/09/17 07:09:35;;;;;;;5.85;1.90;;;9.40;99.90;;;8.56;100.00;101891.84;5145910;23;20009;-74
2022/09/17 07:11:39;;;;;;;2.70;1.38;;;9.40;99.90;;;8.73;100.00;101909.81;5147695;23;20068;-74
2022/09/17 07:13:40;;;;;;;;;;;9.50;99.90;;;8.66;100.00;101895.44;5146821;23;20011;-75
2022/09/17 07:15:41;;;;;;;4.00;1.40;;;9.60;99.90;;;8.78;100.00;101899.78;5146091;23;19908;-74
2022/09/17 07:17:43;;;;;;;4.82;1.85;;;9.60;99.90;;;8.86;100.00;101904.47;5146034;23;20013;-74
2022/09/17 07:19:44;;;;;;;2.22;1.60;;;9.70;99.90;;;8.87;100.00;101906.97;5147569;23;20042;-74
2022/09/17 07:21:48;;;;;;;2.72;1.73;;;9.70;99.90;;;9.03;100.00;101919.81;5148126;23;20000;-74
2022/09/17 07:23:50;;;;;;;4.63;1.90;;;9.80;99.90;;;9.01;100.00;101911.19;5149220;23;20005;-74
2022/09/17 07:25:59;;;;;;;5.68;1.55;;;9.80;99.90;;;9.01;100.00;101905.94;5148890;23;20226;-74
2022/09/17 07:28:02;;;;;;;2.67;2.08;;;9.90;99.90;;;9.08;100.00;101903.69;5147547;23;20008;-74
2022/09/17 07:30:04;;;;;;;2.55;1.67;;;9.90;99.90;;;9.11;100.00;101895.56;5147703;23;20432;-75
2022/09/17 07:32:05;;;;;;;2.47;1.60;;;10.00;99.90;;;9.17;100.00;101890.63;5147814;23;20031;-74
2022/09/17 07:34:06;;;;;;;2.92;1.60;;;10.10;99.90;;;9.21;100.00;101902.59;5147786;23;20345;-74
2022/09/17 07:36:12;;;;;;;3.63;1.52;;;10.10;99.90;;;9.30;100.00;101920.31;5172229;23;20444;-74
2022/09/17 07:38:13;;;;;;;2.83;2.20;;;10.10;99.90;;;9.28;100.00;101913.50;5149191;23;20005;-75
2022/09/17 07:40:14;;;;;;;5.20;1.80;;;10.20;99.90;;;9.35;100.00;101920.78;5147097;23;20005;-74
2022/09/17 07:42:15;;;;;;;3.75;1.40;;;10.20;99.90;;;9.33;100.00;101906.91;5149229;23;20004;-74
2022/09/17 07:44:16;;;;;;;4.18;1.60;;;10.30;99.90;;;9.44;100.00;101911.34;5147565;23;20388;-74
2022/09/17 07:46:19;;;;;;;3.55;1.65;;;10.30;99.90;;;9.45;100.00;101911.22;5148973;23;20007;-75
2022/09/17 07:48:20;;;;;;;4.40;1.30;;;10.40;99.90;;;9.53;100.00;101918.50;5147416;23;20005;-74
2022/09/17 07:50:21;;;;;;;4.75;1.80;;;10.40;99.90;;;9.68;100.00;101933.13;5147696;23;20012;-74
2022/09/17 07:52:22;;;;;;;6.40;1.65;;;10.50;99.90;;;9.72;100.00;101929.28;5147155;23;20472;-74
2022/09/17 07:54:24;;;;;;;3.25;1.30;;;10.60;99.90;;;9.63;100.00;101892.28;5148606;23;20000;-74
2022/09/17 07:56:26;;;;;;;4.88;1.95;;;10.60;99.90;;;9.81;100.00;101915.38;5149128;23;20005;-75
2022/09/17 07:58:34;;;;;;;4.35;1.40;;;10.70;99.90;;;9.98;100.00;101935.09;5148868;23;20000;-74
2022/09/17 08:00:35;;;;;;;4.50;1.63;;;10.70;99.90;;;10.06;100.00;101931.88;5147876;23;20440;-74
2022/09/17 08:02:36;;;;;;;2.33;1.50;;;10.80;99.90;;;10.13;100.00;101940.94;5148833;23;20076;-74
2022/09/17 08:04:37;;;;;;;4.57;1.40;;;10.90;99.90;;;10.14;100.00;101926.84;5149112;23;20084;-74
2022/09/17 08:06:39;;;;;;;5.90;1.40;;;11.00;99.90;;;10.26;100.00;101931.97;5147659;23;20063;-74
2022/09/17 08:08:41;;;;;;;4.65;1.80;;;11.10;99.90;;;10.28;100.00;101921.28;5122850;23;20012;-75
2022/09/17 08:10:42;;;;;;;3.15;1.50;;;11.20;99.90;;;10.44;100.00;101933.09;5148412;23;20009;-74
2022/09/17 08:12:42;;;;;;;2.67;1.20;;;11.30;99.90;;;10.57;100.00;101938.22;5148764;23;20032;-75
2022/09/17 08:14:43;;;;;;;4.60;1.63;;;11.30;99.90;;;10.51;100.00;101925.53;5148793;23;20004;-74
2022/09/17 08:16:47;;;;;;;3.00;1.50;;;11.40;99.90;;;10.55;100.00;101921.63;5148818;23;20019;-74
2022/09/17 08:18:53;;;;;;;2.33;1.35;;;11.50;99.90;;;10.76;100.00;101942.78;5148684;23;20031;-75
2022/09/17 08:21:01;;;;;;;4.07;1.17;;;11.60;99.90;;;10.78;100.00;101922.38;5147528;23;20436;-74
2022/09/17 08:23:02;;;;;;;2.67;1.02;;;11.60;99.90;;;10.98;100.00;101947.94;5147815;23;20015;-74
2022/09/17 08:25:05;;;;;;;4.82;1.52;;;11.70;99.90;;;10.90;99.94;101927.44;5146863;23;20332;-74
2022/09/17 08:27:06;;;;;;;5.93;1.15;;;11.80;99.90;;;10.91;99.57;101917.72;5122795;23;20028;-74
2022/09/17 08:29:07;;;;;;;2.38;1.25;;;11.90;99.90;;;11.19;98.90;101946.13;5147139;23;20008;-74
2022/09/17 08:31:08;;;;;;;5.22;1.85;;;12.00;99.90;;;11.26;98.70;101949.91;5147569;23;20009;-75
2022/09/17 08:33:09;;;;;;;2.97;1.10;;;12.00;99.90;;;11.38;98.84;101950.69;5146904;23;20441;-75
2022/09/17 08:35:10;;;;;;;2.20;1.20;;;12.10;99.90;;;11.46;98.68;101950.84;5148835;23;20011;-74
2022/09/17 08:37:11;;;;;;;1.80;1.05;;;12.20;99.90;;;11.39;98.67;101924.13;5148920;23;20008;-75
2022/09/17 08:39:12;;;;;;;5.10;1.42;;;12.30;99.90;;;11.46;98.33;101925.28;5148221;23;20060;-75
2022/09/17 08:41:47;;;;;;;4.57;0.98;;;12.40;99.90;;;11.65;98.36;101948.25;5148686;23;20091;-74
2022/09/17 08:44:03;;;;;;;3.08;1.20;;;12.50;99.90;;;11.81;97.99;101964.50;5148845;23;20059;-75
2022/09/17 08:46:07;;;;;;;2.85;0.90;;;12.60;99.90;;;11.76;97.60;101932.34;5146814;23;20013;-75
2022/09/17 08:48:13;;;;;;;5.30;1.10;;;12.70;99.90;;;11.87;97.17;101941.97;5122166;23;20017;-74
2022/09/17 08:50:23;;;;;;;2.88;0.90;;;12.80;99.90;;;12.04;96.81;101955.38;5171849;23;20004;-75